createdAt,value
2019-03-28T00:01:37.063Z,99860.84
2019-03-28T00:04:11.400Z,99858.98
2019-03-28T00:06:45.620Z,99856.70
2019-03-28T00:09:19.924Z,99845.21
2019-03-28T00:11:54.601Z,99849.56
2019-03-28T00:14:28.409Z,99844.27
2019-03-28T00:17:02.619Z,99851.75
2019-03-28T00:19:37.206Z,99845.50
2019-03-28T00:22:13.809Z,99847.40
2019-03-28T00:24:56.907Z,99846.45
2019-03-28T00:27:31.014Z,99841.72
2019-03-28T00:30:05.590Z,99847.56
2019-03-28T00:32:40.393Z,99849.14
2019-03-28T00:35:14.933Z,99850.14
2019-03-28T00:37:49.356Z,99850.31
2019-03-28T00:40:24.661Z,99848.13
2019-03-28T00:42:58.742Z,99849.21
2019-03-28T00:45:33.965Z,99853.66
2019-03-28T00:48:08.207Z,99845.83
2019-03-28T00:50:42.422Z,99846.54
2019-03-28T00:53:17.984Z,99846.79
2019-03-28T00:55:52.300Z,99842.26
2019-03-28T00:58:27.690Z,99835.59
2019-03-28T01:01:02.302Z,99841.11
2019-03-28T01:03:36.611Z,99840.78
2019-03-28T01:06:10.472Z,99843.37
2019-03-28T01:08:44.782Z,99841.06
2019-03-28T01:11:19.565Z,99841.01
2019-03-28T01:13:54.194Z,99845.12
2019-03-28T01:16:28.395Z,99845.36
2019-03-28T01:19:02.189Z,99843.37
2019-03-28T01:21:36.357Z,99839.50
2019-03-28T01:24:10.747Z,99849.19
2019-03-28T01:26:56.711Z,99850.81
2019-03-28T01:29:21.521Z,99849.00
2019-03-28T01:31:55.655Z,99847.42
2019-03-28T01:34:30.365Z,99838.38
2019-03-28T01:37:04.211Z,99839.17
2019-03-28T01:39:39.713Z,99835.00
2019-03-28T01:42:14.227Z,99841.87
2019-03-28T01:44:49.483Z,99843.41
2019-03-28T01:47:24.995Z,99837.84
2019-03-28T01:49:59.598Z,99831.20
2019-03-28T01:52:33.968Z,99831.52
2019-03-28T01:55:09.107Z,99843.42
2019-03-28T01:57:43.781Z,99839.63
2019-03-28T02:00:18.780Z,99846.36
2019-03-28T02:02:53.332Z,99847.03
2019-03-28T02:05:28.210Z,99841.70
2019-03-28T02:08:03.023Z,99835.98
2019-03-28T02:10:37.182Z,99828.24
2019-03-28T02:13:11.520Z,99832.34
2019-03-28T02:15:49.007Z,99833.73
2019-03-28T02:18:24.694Z,99839.06
2019-03-28T02:20:58.571Z,99842.63
2019-03-28T02:23:33.349Z,99845.41
2019-03-28T02:26:08.137Z,99846.20
2019-03-28T02:28:42.092Z,99845.27
2019-03-28T02:31:16.916Z,99842.63
2019-03-28T02:33:52.356Z,99838.54
2019-03-28T02:36:26.247Z,99839.36
2019-03-28T02:38:59.709Z,99838.98
2019-03-28T02:41:34.897Z,99840.23
2019-03-28T02:44:09.333Z,99833.80
2019-03-28T02:46:44.335Z,99840.16
2019-03-28T02:49:18.910Z,99835.83
2019-03-28T02:51:54.220Z,99834.14
2019-03-28T02:54:29.354Z,99843.65
2019-03-28T02:57:03.835Z,99843.16
2019-03-28T02:59:37.900Z,99835.98
2019-03-28T03:02:13.615Z,99833.73
2019-03-28T03:04:47.722Z,99837.53
2019-03-28T03:07:22.605Z,99833.28
2019-03-28T03:09:58.147Z,99831.52
2019-03-28T03:12:33.640Z,99841.02
2019-03-28T03:15:07.937Z,99843.58
2019-03-28T03:17:42.708Z,99848.30
2019-03-28T03:20:17.502Z,99844.66
2019-03-28T03:22:51.773Z,99843.27
2019-03-28T03:25:26.053Z,99848.16
2019-03-28T03:28:01.217Z,99845.83
2019-03-28T03:30:35.470Z,99850.30
2019-03-28T03:33:11.466Z,99850.38
2019-03-28T03:35:46.261Z,99846.84
2019-03-28T03:38:21.660Z,99850.45
2019-03-28T03:40:57.825Z,99853.16
2019-03-28T03:43:33.058Z,99848.30
2019-03-28T03:46:10.895Z,99855.19
2019-03-28T03:48:47.633Z,99853.64
2019-03-28T03:51:36.366Z,99853.41
2019-03-28T03:54:13.905Z,99844.73
2019-03-28T03:56:49.513Z,99857.95
2019-03-28T03:59:24.767Z,99859.66
2019-03-28T04:01:59.214Z,99855.18
2019-03-28T04:04:44.708Z,99854.34
2019-03-28T04:07:23.193Z,99849.69
2019-03-28T04:10:00.742Z,99851.30
2019-03-28T04:12:40.685Z,99855.73
2019-03-28T04:15:15.730Z,99858.52
2019-03-28T04:17:52.063Z,99856.48
2019-03-28T04:20:28.181Z,99851.63
2019-03-28T04:23:03.991Z,99858.66
2019-03-28T04:25:41.104Z,99852.53
2019-03-28T04:28:30.808Z,99857.42
2019-03-28T04:30:56.560Z,99850.13
2019-03-28T04:33:39.458Z,99854.88
2019-03-28T04:36:14.751Z,99857.35
2019-03-28T04:38:50.541Z,99865.47
2019-03-28T04:41:25.421Z,99858.89
2019-03-28T04:43:59.817Z,99864.37
2019-03-28T04:46:34.089Z,99859.67
2019-03-28T04:49:09.001Z,99860.73
2019-03-28T04:51:42.969Z,99860.44
2019-03-28T04:54:16.760Z,99863.06
2019-03-28T04:56:51.521Z,99863.78
2019-03-28T04:59:25.622Z,99861.83
2019-03-28T05:02:03.455Z,99865.48
2019-03-28T05:04:36.500Z,99872.84
2019-03-28T05:07:11.197Z,99868.10
2019-03-28T05:09:48.418Z,99874.98
2019-03-28T05:12:22.292Z,99876.63
2019-03-28T05:14:57.206Z,99870.20
2019-03-28T05:17:32.099Z,99878.63
2019-03-28T05:20:07.777Z,99872.83
2019-03-28T05:22:43.898Z,99866.55
2019-03-28T05:25:19.215Z,99875.31
2019-03-28T05:27:53.206Z,99876.06
2019-03-28T05:30:27.788Z,99870.91
2019-03-28T05:33:01.981Z,99879.23
2019-03-28T05:35:37.505Z,99883.34
2019-03-28T05:38:12.828Z,99884.05
2019-03-28T05:40:48.616Z,99886.04
2019-03-28T05:43:22.732Z,99899.38
2019-03-28T05:45:57.306Z,99904.38
2019-03-28T05:48:34.039Z,99907.72
2019-03-28T05:51:08.093Z,99905.95
2019-03-28T05:53:44.066Z,99915.59
2019-03-28T05:56:19.269Z,99920.47
2019-03-28T05:58:54.434Z,99917.76
2019-03-28T06:01:28.817Z,99905.94
2019-03-28T06:04:04.398Z,99911.05
2019-03-28T06:06:39.052Z,99911.19
2019-03-28T06:09:12.954Z,99921.00
2019-03-28T06:11:47.612Z,99915.16
2019-03-28T06:14:21.897Z,99913.96
2019-03-28T06:16:56.766Z,99915.90
2019-03-28T06:19:31.348Z,99909.18
2019-03-28T06:22:05.623Z,99912.88
2019-03-28T06:24:40.208Z,99915.66
2019-03-28T06:27:14.414Z,99923.75
2019-03-28T06:29:52.727Z,99923.25
2019-03-28T06:32:26.826Z,99921.17
2019-03-28T06:35:10.805Z,99921.12
2019-03-28T06:37:45.520Z,99923.47
2019-03-28T06:40:19.529Z,99920.29
2019-03-28T06:42:54.694Z,99922.59
2019-03-28T06:45:29.839Z,99928.42
2019-03-28T06:48:04.260Z,99926.66
2019-03-28T06:50:38.832Z,99924.31
2019-03-28T06:53:13.371Z,99928.41
2019-03-28T06:55:47.296Z,99922.00
2019-03-28T06:58:22.281Z,99924.67
2019-03-28T07:00:56.771Z,99925.33
2019-03-28T07:03:30.717Z,99932.69
2019-03-28T07:06:04.644Z,99932.13
2019-03-28T07:08:39.786Z,99928.84
2019-03-28T07:11:15.563Z,99926.09
2019-03-28T07:13:49.879Z,99927.48
2019-03-28T07:16:24.893Z,99927.59
2019-03-28T07:18:59.122Z,99926.25
2019-03-28T07:21:33.061Z,99928.88
2019-03-28T07:24:08.188Z,99923.93
2019-03-28T07:26:42.451Z,99925.58
2019-03-28T07:29:17.568Z,99919.59
2019-03-28T07:31:51.721Z,99919.42
2019-03-28T07:34:25.966Z,99921.36
2019-03-28T07:36:59.805Z,99924.79
2019-03-28T07:39:33.422Z,99932.59
2019-03-28T07:42:07.446Z,99928.39
2019-03-28T07:44:42.778Z,99927.00
2019-03-28T07:47:17.414Z,99922.45
2019-03-28T07:49:51.303Z,99922.45
2019-03-28T07:52:25.579Z,99917.67
2019-03-28T07:55:00.392Z,99916.86
2019-03-28T07:57:35.034Z,99913.14
2019-03-28T08:00:10.642Z,99905.70
2019-03-28T08:02:45.839Z,99905.89
2019-03-28T08:05:19.730Z,99912.26
2019-03-28T08:07:53.883Z,99902.63
2019-03-28T08:10:27.690Z,99906.48
2019-03-28T08:13:02.480Z,99910.91
2019-03-28T08:15:37.853Z,99911.66
2019-03-28T08:18:11.308Z,99914.63
2019-03-28T08:20:48.446Z,99913.42
2019-03-28T08:23:23.310Z,99924.55
2019-03-28T08:25:58.501Z,99923.47
2019-03-28T08:28:33.112Z,99926.79
2019-03-28T08:31:07.925Z,99927.03
2019-03-28T08:33:45.274Z,99920.40
2019-03-28T08:36:20.908Z,99922.58
2019-03-28T08:38:56.388Z,99923.86
2019-03-28T08:41:30.207Z,99934.53
2019-03-28T08:44:07.212Z,99931.14
2019-03-28T08:46:40.849Z,99927.51
2019-03-28T08:49:15.087Z,99934.09
2019-03-28T08:51:50.930Z,99927.52
2019-03-28T08:54:25.537Z,99930.69
2019-03-28T08:57:01.984Z,99928.06
2019-03-28T08:59:36.613Z,99926.49
2019-03-28T09:02:11.715Z,99925.14
2019-03-28T09:04:46.201Z,99925.53
2019-03-28T09:07:20.384Z,99924.20
2019-03-28T09:09:55.707Z,99921.94
2019-03-28T09:12:34.866Z,99920.70
2019-03-28T09:15:08.146Z,99915.25
2019-03-28T09:17:42.356Z,99914.77
2019-03-28T09:20:17.118Z,99915.41
2019-03-28T09:22:51.989Z,99912.23
2019-03-28T09:25:25.859Z,99912.78
2019-03-28T09:28:01.574Z,99911.27
2019-03-28T09:30:48.920Z,99912.06
2019-03-28T09:33:17.871Z,99909.78
2019-03-28T09:35:51.744Z,99915.78
2019-03-28T09:38:25.693Z,99912.19
2019-03-28T09:41:01.255Z,99905.86
2019-03-28T09:43:35.779Z,99915.87
2019-03-28T09:46:10.071Z,99913.36
2019-03-28T09:48:45.844Z,99906.16
2019-03-28T09:51:20.625Z,99913.26
2019-03-28T09:53:56.231Z,99905.36
2019-03-28T09:56:30.388Z,99911.44
2019-03-28T09:59:04.994Z,99910.63
2019-03-28T10:01:39.704Z,99914.55
2019-03-28T10:04:15.668Z,99913.95
2019-03-28T10:06:50.163Z,99914.22
2019-03-28T10:09:24.675Z,99916.52
2019-03-28T10:11:59.204Z,99914.38
2019-03-28T10:14:33.830Z,99899.82
2019-03-28T10:17:08.024Z,99908.50
2019-03-28T10:19:42.146Z,99911.31
2019-03-28T10:22:16.365Z,99907.97
2019-03-28T10:24:51.237Z,99905.06
2019-03-28T10:27:25.802Z,99900.86
2019-03-28T10:29:59.955Z,99893.66
2019-03-28T10:32:35.034Z,99895.84
2019-03-28T10:35:11.730Z,99898.48
2019-03-28T10:37:47.622Z,99898.53
2019-03-28T10:40:22.169Z,99889.27
2019-03-28T10:42:57.728Z,99893.20
2019-03-28T10:45:33.761Z,99888.80
2019-03-28T10:48:08.372Z,99883.88
2019-03-28T10:50:45.824Z,99891.47
2019-03-28T10:53:18.870Z,99882.19
2019-03-28T10:55:54.121Z,99871.64
2019-03-28T10:58:27.672Z,99880.69
2019-03-28T11:01:01.656Z,99877.16
2019-03-28T11:03:35.536Z,99876.55
2019-03-28T11:06:10.240Z,99868.84
2019-03-28T11:08:45.442Z,99871.67
2019-03-28T11:11:18.919Z,99870.88
2019-03-28T11:13:53.117Z,99865.03
2019-03-28T11:16:27.073Z,99865.88
2019-03-28T11:19:01.954Z,99860.69
2019-03-28T11:21:36.422Z,99866.78
2019-03-28T11:24:10.967Z,99866.91
2019-03-28T11:26:45.180Z,99862.63
2019-03-28T11:29:19.367Z,99880.97
2019-03-28T11:31:53.530Z,99870.43
2019-03-28T11:34:27.385Z,99869.19
2019-03-28T11:37:00.884Z,99867.44
2019-03-28T11:39:35.421Z,99863.17
2019-03-28T11:42:09.408Z,99864.13
2019-03-28T11:44:43.744Z,99861.39
2019-03-28T11:47:17.995Z,99859.81
2019-03-28T11:49:52.164Z,99853.30
2019-03-28T11:52:26.073Z,99851.84
2019-03-28T11:54:59.948Z,99861.22
2019-03-28T11:57:34.616Z,99846.06
2019-03-28T12:00:12.195Z,99853.84
2019-03-28T12:02:46.888Z,99852.93
2019-03-28T12:05:20.753Z,99854.44
2019-03-28T12:07:55.050Z,99847.20
2019-03-28T12:10:29.362Z,99847.87
2019-03-28T12:13:04.235Z,99845.19
2019-03-28T12:15:39.051Z,99846.35
2019-03-28T12:18:15.189Z,99840.59
2019-03-28T12:20:49.428Z,99833.43
2019-03-28T12:23:24.571Z,99834.42
2019-03-28T12:25:59.674Z,99831.88
2019-03-28T12:28:33.994Z,99835.30
2019-03-28T12:31:07.976Z,99830.86
2019-03-28T12:33:43.856Z,99827.37
2019-03-28T12:36:18.751Z,99821.61
2019-03-28T12:38:53.045Z,99815.74
2019-03-28T12:41:27.736Z,99822.27
2019-03-28T12:44:02.059Z,99823.89
2019-03-28T12:46:36.572Z,99826.05
2019-03-28T12:49:11.295Z,99829.62
2019-03-28T12:51:46.411Z,99821.46
2019-03-28T12:54:20.224Z,99820.76
2019-03-28T12:56:54.455Z,99816.17
2019-03-28T12:59:29.065Z,99820.10
2019-03-28T13:02:03.282Z,99823.05
2019-03-28T13:04:37.116Z,99820.45
2019-03-28T13:07:11.295Z,99823.73
2019-03-28T13:09:45.711Z,99817.61
2019-03-28T13:12:19.706Z,99815.77
2019-03-28T13:14:54.458Z,99814.99
2019-03-28T13:17:28.368Z,99820.86
2019-03-28T13:20:03.193Z,99806.62
2019-03-28T13:22:38.474Z,99808.31
2019-03-28T13:25:12.192Z,99816.55
2019-03-28T13:27:47.043Z,99816.00
2019-03-28T13:30:22.680Z,99812.59
2019-03-28T13:32:56.932Z,99813.97
2019-03-28T13:35:30.706Z,99811.63
2019-03-28T13:38:05.424Z,99808.74
2019-03-28T13:40:39.725Z,99811.76
2019-03-28T13:43:14.426Z,99814.22
2019-03-28T13:45:48.363Z,99804.56
2019-03-28T13:48:22.656Z,99803.04
2019-03-28T13:50:57.962Z,99804.28
2019-03-28T13:53:39.292Z,99805.84
2019-03-28T13:56:09.938Z,99802.45
2019-03-28T13:58:44.648Z,99795.00
2019-03-28T14:01:18.546Z,99796.16
2019-03-28T14:03:52.102Z,99796.54
2019-03-28T14:06:27.978Z,99799.21
2019-03-28T14:09:01.961Z,99804.13
2019-03-28T14:11:36.584Z,99807.80
2019-03-28T14:14:11.345Z,99815.34
2019-03-28T14:16:47.764Z,99808.17
2019-03-28T14:19:22.009Z,99805.77
2019-03-28T14:21:57.076Z,99803.46
2019-03-28T14:24:32.111Z,99801.19
2019-03-28T14:27:06.031Z,99802.75
2019-03-28T14:29:40.518Z,99811.66
2019-03-28T14:32:15.511Z,99808.75
2019-03-28T14:34:50.703Z,99805.84
2019-03-28T14:37:26.318Z,99806.52
2019-03-28T14:40:00.506Z,99802.05
2019-03-28T14:42:36.145Z,99793.71
2019-03-28T14:45:10.508Z,99788.75
2019-03-28T14:47:44.923Z,99791.55
2019-03-28T14:50:36.124Z,99792.14
2019-03-28T14:53:10.077Z,99787.70
2019-03-28T14:55:44.122Z,99789.31
2019-03-28T14:58:21.840Z,99792.03
2019-03-28T15:00:55.575Z,99794.55
2019-03-28T15:03:30.827Z,99798.13
2019-03-28T15:06:04.429Z,99799.38
2019-03-28T15:08:38.829Z,99804.20
2019-03-28T15:11:14.379Z,99799.15
2019-03-28T15:13:47.967Z,99797.43
2019-03-28T15:16:21.542Z,99791.75
2019-03-28T15:18:55.943Z,99792.41
2019-03-28T15:21:30.684Z,99800.96
2019-03-28T15:24:05.485Z,99797.13
2019-03-28T15:26:40.869Z,99788.98
2019-03-28T15:29:15.269Z,99786.38
2019-03-28T15:31:49.788Z,99786.91
2019-03-28T15:34:25.246Z,99785.73
2019-03-28T15:37:00.012Z,99790.85
2019-03-28T15:39:34.627Z,99783.77
2019-03-28T15:42:09.547Z,99788.03
2019-03-28T15:44:44.789Z,99790.06
2019-03-28T15:47:19.643Z,99793.87
2019-03-28T15:49:54.775Z,99795.61
2019-03-28T15:52:29.265Z,99792.59
2019-03-28T15:55:03.184Z,99799.27
2019-03-28T15:57:40.727Z,99798.58
2019-03-28T16:00:15.357Z,99791.59
2019-03-28T16:02:48.852Z,99794.98
2019-03-28T16:05:23.485Z,99795.34
2019-03-28T16:07:59.421Z,99795.67
2019-03-28T16:10:33.772Z,99796.61
2019-03-28T16:13:08.631Z,99794.97
2019-03-28T16:15:43.331Z,99794.95
2019-03-28T16:18:17.473Z,99793.77
2019-03-28T16:20:53.450Z,99797.72
2019-03-28T16:23:27.748Z,99796.95
2019-03-28T16:26:02.987Z,99792.16
2019-03-28T16:28:38.169Z,99790.73
2019-03-28T16:31:13.433Z,99793.52
2019-03-28T16:33:48.810Z,99790.96
2019-03-28T16:36:23.158Z,99794.89
2019-03-28T16:38:57.387Z,99801.14
2019-03-28T16:41:31.593Z,99801.83
2019-03-28T16:44:07.206Z,99801.18
2019-03-28T16:46:41.106Z,99798.37
2019-03-28T16:49:16.050Z,99797.45
2019-03-28T16:51:52.104Z,99804.19
2019-03-28T16:54:26.389Z,99800.26
2019-03-28T16:57:01.311Z,99799.33
2019-03-28T16:59:35.687Z,99796.23
2019-03-28T17:02:10.819Z,99803.66
2019-03-28T17:04:45.322Z,99800.88
2019-03-28T17:07:19.743Z,99802.80
2019-03-28T17:09:55.846Z,99802.22
2019-03-28T17:12:31.503Z,99804.91
2019-03-28T17:15:05.856Z,99802.48
2019-03-28T17:17:40.183Z,99804.98
2019-03-28T17:20:15.096Z,99813.77
2019-03-28T17:22:50.783Z,99807.86
2019-03-28T17:25:25.313Z,99809.22
2019-03-28T17:27:59.382Z,99812.67
2019-03-28T17:30:36.338Z,99813.27
2019-03-28T17:33:11.269Z,99815.98
2019-03-28T17:35:46.081Z,99819.43
2019-03-28T17:38:21.335Z,99819.03
2019-03-28T17:40:57.011Z,99823.84
2019-03-28T17:43:31.243Z,99818.64
2019-03-28T17:46:05.769Z,99829.28
2019-03-28T17:48:40.252Z,99828.08
2019-03-28T17:51:14.878Z,99827.22
2019-03-28T17:53:49.942Z,99823.63
2019-03-28T17:56:24.582Z,99832.85
2019-03-28T17:59:00.230Z,99830.99
2019-03-28T18:01:34.923Z,99829.94
2019-03-28T18:04:22.187Z,99829.34
2019-03-28T18:06:47.960Z,99834.81
2019-03-28T18:09:24.629Z,99840.14
2019-03-28T18:11:59.915Z,99837.75
2019-03-28T18:14:37.210Z,99831.95
2019-03-28T18:17:18.168Z,99843.34
2019-03-28T18:19:52.118Z,99836.78
2019-03-28T18:22:28.430Z,99846.33
2019-03-28T18:25:02.887Z,99857.48
2019-03-28T18:27:38.437Z,99866.09
2019-03-28T18:30:13.426Z,99861.36
2019-03-28T18:32:50.005Z,99863.18
2019-03-28T18:35:24.519Z,99862.22
2019-03-28T18:37:59.352Z,99868.88
2019-03-28T18:40:34.663Z,99868.18
2019-03-28T18:43:08.897Z,99878.33
2019-03-28T18:45:43.525Z,99876.52
2019-03-28T18:48:29.179Z,99882.56
2019-03-28T18:50:54.433Z,99891.53
2019-03-28T18:53:28.326Z,99881.83
2019-03-28T18:56:03.293Z,99882.07
2019-03-28T18:58:38.184Z,99884.02
2019-03-28T19:01:12.697Z,99884.03
2019-03-28T19:03:49.203Z,99880.28
2019-03-28T19:06:23.967Z,99884.39
2019-03-28T19:08:58.221Z,99880.88
2019-03-28T19:11:32.855Z,99886.08
2019-03-28T19:14:07.249Z,99890.78
2019-03-28T19:16:42.275Z,99891.52
2019-03-28T19:19:17.145Z,99899.27
2019-03-28T19:21:51.484Z,99898.05
2019-03-28T19:24:26.565Z,99900.95
2019-03-28T19:27:03.467Z,99903.46
2019-03-28T19:29:38.297Z,99902.37
2019-03-28T19:32:12.760Z,99903.94
2019-03-28T19:34:47.469Z,99900.69
2019-03-28T19:37:24.913Z,99907.69
2019-03-28T19:39:59.174Z,99901.03
2019-03-28T19:42:34.260Z,99904.63
2019-03-28T19:45:09.187Z,99897.39
2019-03-28T19:47:44.757Z,99898.36
2019-03-28T19:50:29.616Z,99894.37
2019-03-28T19:53:04.453Z,99884.79
2019-03-28T19:55:40.044Z,99892.76
2019-03-28T19:58:15.314Z,99893.10
2019-03-28T20:00:52.130Z,99894.55
2019-03-28T20:03:31.622Z,99894.08
2019-03-28T20:06:21.268Z,99892.22
2019-03-28T20:08:45.015Z,99889.30
2019-03-28T20:11:19.169Z,99894.48
2019-03-28T20:13:54.972Z,99890.14
2019-03-28T20:16:29.826Z,99894.22
2019-03-28T20:19:04.553Z,99888.68
2019-03-28T20:21:39.504Z,99884.31
2019-03-28T20:24:15.022Z,99887.19
2019-03-28T20:26:54.117Z,99890.25
2019-03-28T20:29:26.968Z,99885.38
2019-03-28T20:32:01.544Z,99884.27
2019-03-28T20:34:36.000Z,99888.21
2019-03-28T20:37:11.657Z,99884.53
2019-03-28T20:39:46.225Z,99890.17
2019-03-28T20:42:21.363Z,99888.79
2019-03-28T20:44:56.826Z,99887.98
2019-03-28T20:47:31.157Z,99886.81
2019-03-28T20:50:06.160Z,99891.77
2019-03-28T20:52:40.780Z,99893.05
2019-03-28T20:55:15.155Z,99887.88
2019-03-28T20:57:50.526Z,99892.90
2019-03-28T21:00:55.233Z,99896.14
2019-03-28T21:03:29.676Z,99897.73
2019-03-28T21:06:14.539Z,99903.20
2019-03-28T21:08:42.370Z,99901.27
2019-03-28T21:11:17.895Z,99904.02
2019-03-28T21:13:51.702Z,99912.44
2019-03-28T21:16:25.658Z,99912.17
2019-03-28T21:19:02.538Z,99906.81
2019-03-28T21:21:37.499Z,99903.70
2019-03-28T21:24:14.889Z,99905.18
2019-03-28T21:26:49.096Z,99906.64
2019-03-28T21:29:23.356Z,99906.28
2019-03-28T21:31:57.941Z,99905.67
2019-03-28T21:34:33.841Z,99902.77
2019-03-28T21:37:08.408Z,99903.52
2019-03-28T21:39:44.037Z,99900.53
2019-03-28T21:42:18.290Z,99898.86
2019-03-28T21:44:53.078Z,99892.41
2019-03-28T21:47:27.842Z,99895.27
2019-03-28T21:50:02.791Z,99896.79
2019-03-28T21:52:37.426Z,99893.39
2019-03-28T21:55:12.581Z,99890.19
2019-03-28T21:57:47.298Z,99890.48
2019-03-28T22:00:22.602Z,99897.95
2019-03-28T22:02:56.741Z,99895.31
2019-03-28T22:05:31.076Z,99896.06
2019-03-28T22:08:05.224Z,99902.77
2019-03-28T22:10:39.391Z,99896.53
2019-03-28T22:13:14.178Z,99893.89
2019-03-28T22:15:48.217Z,99889.70
2019-03-28T22:18:23.020Z,99888.83
2019-03-28T22:20:59.402Z,99896.73
2019-03-28T22:23:35.124Z,99901.81
2019-03-28T22:26:10.085Z,99897.09
2019-03-28T22:28:45.048Z,99902.74
2019-03-28T22:31:19.186Z,99912.39
2019-03-28T22:33:54.055Z,99913.62
2019-03-28T22:36:29.785Z,99902.09
2019-03-28T22:39:06.065Z,99903.94
2019-03-28T22:41:40.591Z,99901.87
2019-03-28T22:44:15.753Z,99901.22
2019-03-28T22:46:49.889Z,99905.52
2019-03-28T22:49:25.270Z,99899.46
2019-03-28T22:51:59.656Z,99902.81
2019-03-28T22:54:34.061Z,99906.33
2019-03-28T22:57:09.144Z,99895.16
2019-03-28T22:59:43.088Z,99900.77
2019-03-28T23:02:18.227Z,99895.91
2019-03-28T23:04:52.944Z,99898.39
2019-03-28T23:07:27.241Z,99898.63
2019-03-28T23:10:02.055Z,99892.63
2019-03-28T23:12:36.787Z,99903.00
2019-03-28T23:15:12.274Z,99897.39
2019-03-28T23:17:47.002Z,99894.06
2019-03-28T23:20:21.669Z,99893.52
2019-03-28T23:22:56.667Z,99895.34
2019-03-28T23:25:31.354Z,99891.89
2019-03-28T23:28:05.773Z,99889.47
2019-03-28T23:30:41.591Z,99889.92
2019-03-28T23:33:16.421Z,99893.71
2019-03-28T23:35:50.373Z,99893.95
2019-03-28T23:38:25.577Z,99895.64
2019-03-28T23:41:00.162Z,99902.66
2019-03-28T23:43:35.968Z,99904.22
2019-03-28T23:46:11.209Z,99907.92
2019-03-28T23:48:46.029Z,99906.79
2019-03-28T23:51:20.210Z,99912.91
2019-03-28T23:53:55.070Z,99913.11
2019-03-28T23:56:30.521Z,99916.45
2019-03-28T23:59:05.470Z,99912.53
